Impacts TAF Board INFO
FOR SITUATIONAL AWARENESS. NOT TO BE USED FOR FLIGHT PLANNING PURPOSES.
IDs:

KPHL - Philadelphia Intl, PA, US

Issued at 2102 UTC 25 May 2018
Updated at 2212 UTC 25 May 2018
Potential Impact None Slight Moderate High
Time2154Z 25/23Z 26/00Z 26/01Z 26/02Z 26/03Z 26/04Z 26/05Z 26/06Z 26/07Z 26/08Z 26/09Z 26/10Z 26/11Z>>
Type OBS PRVL PRVL PRVL PRVL PRVL PRVL PRVL PRVL PRVL PRVL PRVL PRVL PRVL
VIS 10 >6 >6 >6 >6 >6 >6 >6 >6 >6 >6 >6 >6 >6
CIG -- -- -- -- -- -- -- -- -- -- -- -- -- --
Cover SCT SKC SKC SKC SKC SKC SKC SKC SKC SKC SKC SKC SKC SKC
FltCat VFR VFR VFR VFR VFR VFR VFR VFR VFR VFR VFR VFR VFR VFR
WX -- -- -- -- -- -- -- -- -- -- -- -- -- --
WDir 220 230 230 230 230 220 220 220 220 220 220 220 220 220
WSpd 10 10 10 10 10 8 8 8 8 8 8 8 8 8
WGst -- -- -- -- -- -- -- -- -- -- -- -- -- --

Raw TAF
KPHL 252102Z 2521/2624 23013G19KT P6SM SKC
  FM252300 23010KT P6SM SKC
  FM260300 22008KT P6SM SKC
  FM261500 24008KT P6SM SCT060 BKN150
  FM261900 24010KT P6SM BKN060 BKN150
  PROB30 2619/2623 5SM -TSRA BKN060CB


Raw METAR
KPHL 252154Z 22010KT 10SM SCT300 29/15 A2989 RMK AO2 SLP120 T02890150 $
KPHL 252054Z 23014KT 10SM FEW060 BKN300 29/15 A2990 RMK AO2 SLP126 T02940150 56021
KPHL 251954Z 24016KT 10SM FEW060 BKN330 29/14 A2992 RMK AO2 SLP130 T02940139

METAR Board
Radar Display
Forecast Discussion

FOR SITUATIONAL AWARENESS. NOT TO BE USED FOR FLIGHT PLANNING PURPOSES.